Time;durP1;ratioP1;P1;durP2;ratioP2;P2;SDS_P1;SDS_P2;PMS_P1;PMS_P2;Temp;Humidity;BMP_temperature;BMP_pressure;BME280_temperature;BME280_humidity;BME280_pressure;Samples;Min_cycle;Max_cycle;Signal;HPM_P1;HPM_P2
2021/07/23 00:00:57;;;;;;;;;;;23.20;56.40;;;;;;500205;237;1280;-70
2021/07/23 00:02:58;;;;;;;;;;;23.20;56.50;;;;;;500280;237;1052;-70
2021/07/23 00:05:00;;;;;;;;;;;23.20;56.50;;;;;;500110;237;1037;-70
2021/07/23 00:07:01;;;;;;;;;;;23.20;56.60;;;;;;500269;237;1098;-70
2021/07/23 00:09:02;;;;;;;;;;;23.20;56.40;;;;;;500280;237;967;-71
2021/07/23 00:11:04;;;;;;;;;;;23.30;56.30;;;;;;500350;235;1225;-70
2021/07/23 00:13:05;;;;;;;;;;;23.20;56.20;;;;;;500283;237;940;-71
2021/07/23 00:15:06;;;;;;;;;;;23.20;56.40;;;;;;500343;237;1166;-70
2021/07/23 00:17:08;;;;;;;;;;;23.20;56.50;;;;;;500265;237;1206;-70
2021/07/23 00:19:09;;;;;;;;;;;23.20;56.50;;;;;;500370;237;2129;-71
2021/07/23 00:21:10;;;;;;;;;;;23.20;56.40;;;;;;500310;237;1142;-71
2021/07/23 00:23:12;;;;;;;;;;;23.20;56.50;;;;;;500407;237;1035;-71
2021/07/23 00:25:13;;;;;;;;;;;23.20;56.50;;;;;;500373;237;1059;-70
2021/07/23 00:27:14;;;;;;;;;;;23.20;56.50;;;;;;500311;237;1178;-70
2021/07/23 00:29:16;;;;;;;;;;;23.20;56.40;;;;;;500296;237;1052;-70
2021/07/23 00:31:17;;;;;;;;;;;23.10;56.50;;;;;;500255;237;1168;-70
2021/07/23 00:33:18;;;;;;;;;;;23.00;56.70;;;;;;500252;237;1207;-70
2021/07/23 00:35:21;;;;;;;;;;;22.90;57.10;;;;;;500290;237;948;-70
2021/07/23 00:37:22;;;;;;;;;;;22.90;57.20;;;;;;500230;237;1227;-70
2021/07/23 00:39:23;;;;;;;;;;;22.90;57.10;;;;;;500411;237;2144;-70
2021/07/23 00:41:24;;;;;;;;;;;22.90;57.00;;;;;;500323;235;1173;-70
2021/07/23 00:43:26;;;;;;;;;;;22.90;56.90;;;;;;500384;237;1030;-70
2021/07/23 00:45:28;;;;;;;;;;;23.00;56.80;;;;;;500406;237;1116;-70
2021/07/23 00:47:29;;;;;;;;;;;23.00;57.00;;;;;;500273;237;1298;-70
2021/07/23 00:49:30;;;;;;;;;;;23.00;56.70;;;;;;500270;237;1048;-70
2021/07/23 00:51:32;;;;;;;;;;;23.00;56.80;;;;;;500089;237;1173;-70
2021/07/23 00:53:33;;;;;;;;;;;23.10;56.60;;;;;;500247;237;1061;-70
2021/07/23 00:55:34;;;;;;;;;;;23.10;56.50;;;;;;500307;237;964;-70
2021/07/23 00:57:36;;;;;;;;;;;23.10;56.40;;;;;;500242;237;1106;-70
2021/07/23 00:59:37;;;;;;;;;;;23.10;56.40;;;;;;500363;237;2183;-70
2021/07/23 01:01:38;;;;;;;;;;;23.00;56.50;;;;;;500335;237;1269;-70
2021/07/23 01:03:40;;;;;;;;;;;23.10;56.60;;;;;;500324;237;1031;-70
2021/07/23 01:05:41;;;;;;;;;;;23.00;56.70;;;;;;500279;237;1029;-70
2021/07/23 01:07:42;;;;;;;;;;;23.10;56.60;;;;;;500340;237;1136;-70
2021/07/23 01:09:44;;;;;;;;;;;23.00;56.70;;;;;;500436;237;1023;-70
2021/07/23 01:11:45;;;;;;;;;;;23.00;56.80;;;;;;500332;236;1248;-70
2021/07/23 01:13:46;;;;;;;;;;;23.00;56.70;;;;;;500279;237;1082;-70
2021/07/23 01:15:48;;;;;;;;;;;23.00;56.70;;;;;;500250;237;1260;-70
2021/07/23 01:17:49;;;;;;;;;;;23.10;56.60;;;;;;500238;237;1084;-70
2021/07/23 01:19:51;;;;;;;;;;;23.00;56.60;;;;;;500288;237;2158;-70
2021/07/23 01:21:52;;;;;;;;;;;23.00;56.70;;;;;;500224;237;1213;-70
2021/07/23 01:23:53;;;;;;;;;;;23.10;56.70;;;;;;500287;237;1098;-70
2021/07/23 01:25:55;;;;;;;;;;;23.10;56.60;;;;;;500250;237;1132;-70
2021/07/23 01:27:56;;;;;;;;;;;23.10;56.60;;;;;;500249;237;1043;-70
2021/07/23 01:29:57;;;;;;;;;;;23.00;56.60;;;;;;500208;237;1005;-70
2021/07/23 01:31:58;;;;;;;;;;;23.00;56.70;;;;;;500176;237;1274;-70
2021/07/23 01:34:00;;;;;;;;;;;23.00;56.70;;;;;;500352;237;1044;-71
2021/07/23 01:36:01;;;;;;;;;;;23.00;56.80;;;;;;500260;237;1387;-70
2021/07/23 01:38:03;;;;;;;;;;;23.00;56.80;;;;;;500250;237;1169;-70
2021/07/23 01:40:04;;;;;;;;;;;23.00;56.80;;;;;;500393;237;1051;-70
2021/07/23 01:42:05;;;;;;;;;;;23.00;56.70;;;;;;500279;237;1206;-71
2021/07/23 01:44:07;;;;;;;;;;;23.00;56.70;;;;;;500347;237;956;-70
2021/07/23 01:46:08;;;;;;;;;;;22.90;56.70;;;;;;500330;237;1310;-70
2021/07/23 01:48:09;;;;;;;;;;;23.00;56.60;;;;;;500321;237;1108;-70
2021/07/23 01:50:11;;;;;;;;;;;23.00;56.70;;;;;;500317;237;965;-70
2021/07/23 01:52:12;;;;;;;;;;;23.00;56.70;;;;;;500208;237;1230;-70
2021/07/23 01:54:13;;;;;;;;;;;22.90;56.60;;;;;;500308;237;976;-70
2021/07/23 01:56:14;;;;;;;;;;;22.90;56.70;;;;;;500281;237;1173;-70
2021/07/23 01:58:17;;;;;;;;;;;22.90;56.80;;;;;;500279;237;2188;-70
2021/07/23 02:00:17;;;;;;;;;;;22.90;56.90;;;;;;500243;238;1258;-70
2021/07/23 02:02:19;;;;;;;;;;;22.90;56.80;;;;;;500312;237;1264;-70
2021/07/23 02:04:20;;;;;;;;;;;22.90;56.70;;;;;;500378;237;981;-70
2021/07/23 02:06:21;;;;;;;;;;;22.90;56.70;;;;;;500323;237;1205;-70
2021/07/23 02:08:22;;;;;;;;;;;22.90;56.80;;;;;;500336;237;1044;-70
2021/07/23 02:10:24;;;;;;;;;;;22.90;56.70;;;;;;500337;237;1189;-70
2021/07/23 02:12:25;;;;;;;;;;;22.90;56.80;;;;;;500377;237;1108;-70
2021/07/23 02:14:29;;;;;;;;;;;22.90;56.80;;;;;;500316;238;1044;-70
2021/07/23 02:16:28;;;;;;;;;;;22.90;56.80;;;;;;499962;235;1375;-70
2021/07/23 02:18:29;;;;;;;;;;;22.90;56.80;;;;;;500356;237;2184;-70
2021/07/23 02:20:31;;;;;;;;;;;22.90;56.70;;;;;;500231;237;1076;-70
2021/07/23 02:22:32;;;;;;;;;;;22.90;56.80;;;;;;500312;237;1087;-70
2021/07/23 02:24:33;;;;;;;;;;;22.90;56.80;;;;;;500296;237;1037;-70
2021/07/23 02:26:35;;;;;;;;;;;22.90;56.80;;;;;;500292;237;1167;-70
2021/07/23 02:28:36;;;;;;;;;;;22.90;56.80;;;;;;500369;237;1260;-70
2021/07/23 02:30:39;;;;;;;;;;;22.90;56.80;;;;;;500335;237;1035;-70
2021/07/23 02:32:39;;;;;;;;;;;22.90;56.70;;;;;;500218;237;1485;-70
2021/07/23 02:34:40;;;;;;;;;;;22.90;56.70;;;;;;500295;237;1045;-70
2021/07/23 02:36:42;;;;;;;;;;;22.90;56.80;;;;;;500231;237;1099;-70
2021/07/23 02:38:43;;;;;;;;;;;22.90;56.80;;;;;;500357;237;2140;-70
2021/07/23 02:40:44;;;;;;;;;;;23.00;56.70;;;;;;500244;237;1038;-70
2021/07/23 02:42:46;;;;;;;;;;;23.00;56.50;;;;;;500339;237;1233;-71
2021/07/23 02:44:47;;;;;;;;;;;23.00;56.60;;;;;;500313;237;1085;-70
2021/07/23 02:46:48;;;;;;;;;;;22.90;56.60;;;;;;500281;237;1130;-70
2021/07/23 02:48:50;;;;;;;;;;;23.00;56.60;;;;;;500313;237;980;-70
2021/07/23 02:50:51;;;;;;;;;;;23.00;56.60;;;;;;500246;237;988;-70
2021/07/23 02:52:52;;;;;;;;;;;23.00;56.70;;;;;;500283;237;1037;-70
2021/07/23 02:54:54;;;;;;;;;;;23.00;56.70;;;;;;500331;237;1177;-70
2021/07/23 02:56:55;;;;;;;;;;;23.10;56.20;;;;;;500227;237;1281;-70
2021/07/23 02:58:56;;;;;;;;;;;23.10;56.20;;;;;;500322;237;2176;-70
2021/07/23 03:00:58;;;;;;;;;;;23.00;56.50;;;;;;500235;237;1139;-70
2021/07/23 03:02:59;;;;;;;;;;;23.00;56.60;;;;;;500360;237;1156;-70
2021/07/23 03:05:01;;;;;;;;;;;22.90;56.60;;;;;;500440;237;1073;-70
2021/07/23 03:07:02;;;;;;;;;;;22.90;56.60;;;;;;500252;237;1207;-70
2021/07/23 03:09:03;;;;;;;;;;;22.90;56.70;;;;;;500359;237;1047;-70
2021/07/23 03:11:05;;;;;;;;;;;23.00;56.60;;;;;;500274;237;1210;-70
2021/07/23 03:13:06;;;;;;;;;;;23.00;56.60;;;;;;500284;237;1091;-70
2021/07/23 03:15:07;;;;;;;;;;;23.00;56.60;;;;;;500309;237;963;-70
2021/07/23 03:17:09;;;;;;;;;;;22.90;56.70;;;;;;500178;237;1277;-70
2021/07/23 03:19:10;;;;;;;;;;;22.90;56.80;;;;;;500384;237;2199;-70
2021/07/23 03:21:11;;;;;;;;;;;22.90;56.70;;;;;;500284;237;1078;-70
2021/07/23 03:23:13;;;;;;;;;;;22.90;56.70;;;;;;500358;237;1032;-70
2021/07/23 03:25:14;;;;;;;;;;;22.90;56.80;;;;;;500375;237;1234;-70
2021/07/23 03:27:15;;;;;;;;;;;22.90;56.70;;;;;;500209;237;1045;-70
2021/07/23 03:29:17;;;;;;;;;;;22.90;56.80;;;;;;500367;237;1049;-70
2021/07/23 03:31:18;;;;;;;;;;;22.90;56.60;;;;;;500330;237;1072;-70
2021/07/23 03:33:19;;;;;;;;;;;22.90;56.60;;;;;;500221;237;1180;-70
2021/07/23 03:35:21;;;;;;;;;;;22.80;56.70;;;;;;500287;237;980;-70
2021/07/23 03:37:22;;;;;;;;;;;22.90;56.80;;;;;;500148;237;1209;-70
2021/07/23 03:39:23;;;;;;;;;;;22.90;56.60;;;;;;500295;237;2196;-70
2021/07/23 03:41:25;;;;;;;;;;;22.90;56.80;;;;;;500217;237;1280;-70
2021/07/23 03:43:26;;;;;;;;;;;22.80;56.80;;;;;;500312;237;1138;-70
2021/07/23 03:45:27;;;;;;;;;;;22.90;56.60;;;;;;500278;237;990;-70
2021/07/23 03:47:29;;;;;;;;;;;22.90;56.60;;;;;;500211;237;1162;-70
2021/07/23 03:49:30;;;;;;;;;;;23.00;56.60;;;;;;500248;237;1045;-70
2021/07/23 03:51:31;;;;;;;;;;;22.90;56.60;;;;;;500148;237;1158;-70
2021/07/23 03:53:33;;;;;;;;;;;22.90;56.60;;;;;;500321;237;1140;-70
2021/07/23 03:55:34;;;;;;;;;;;22.90;56.70;;;;;;500268;237;1061;-70
2021/07/23 03:57:35;;;;;;;;;;;22.90;56.70;;;;;;500301;237;1113;-70
2021/07/23 03:59:37;;;;;;;;;;;22.90;56.70;;;;;;500270;237;2196;-70
2021/07/23 04:01:38;;;;;;;;;;;22.90;56.60;;;;;;500203;237;1260;-70
2021/07/23 04:03:41;;;;;;;;;;;22.90;56.60;;;;;;500361;237;1170;-70
2021/07/23 04:05:41;;;;;;;;;;;23.00;56.70;;;;;;500156;238;1377;-70
2021/07/23 04:07:42;;;;;;;;;;;22.90;56.70;;;;;;500286;237;1232;-70
2021/07/23 04:09:43;;;;;;;;;;;22.90;56.60;;;;;;500317;237;1020;-70
2021/07/23 04:11:48;;;;;;;;;;;22.90;56.70;;;;;;500184;237;1202;-70
2021/07/23 04:13:49;;;;;;;;;;;22.90;56.80;;;;;;500247;237;1393;-70
2021/07/23 04:15:50;;;;;;;;;;;22.90;56.60;;;;;;500298;237;1026;-70
2021/07/23 04:17:51;;;;;;;;;;;22.90;56.70;;;;;;500247;237;1230;-70
2021/07/23 04:19:53;;;;;;;;;;;22.90;56.70;;;;;;500168;237;2133;-70
2021/07/23 04:21:54;;;;;;;;;;;22.90;56.70;;;;;;500113;237;1046;-70
2021/07/23 04:23:55;;;;;;;;;;;22.90;56.70;;;;;;500304;237;1040;-70
2021/07/23 04:25:57;;;;;;;;;;;22.90;56.80;;;;;;500175;237;1102;-70
2021/07/23 04:27:58;;;;;;;;;;;22.90;56.80;;;;;;500174;237;1099;-70
2021/07/23 04:29:59;;;;;;;;;;;23.00;56.70;;;;;;500193;237;1065;-70
2021/07/23 04:32:01;;;;;;;;;;;23.00;56.60;;;;;;500128;237;1086;-70
2021/07/23 04:34:02;;;;;;;;;;;23.00;56.60;;;;;;500270;237;1541;-70
2021/07/23 04:36:03;;;;;;;;;;;23.00;56.60;;;;;;500168;237;1180;-70
2021/07/23 04:38:05;;;;;;;;;;;23.00;56.60;;;;;;500286;237;1102;-70
2021/07/23 04:40:06;;;;;;;;;;;22.90;56.80;;;;;;500123;237;2176;-70
2021/07/23 04:42:08;;;;;;;;;;;22.90;56.80;;;;;;500003;237;1110;-70
2021/07/23 04:44:09;;;;;;;;;;;22.90;56.80;;;;;;500069;237;1316;-70
2021/07/23 04:46:10;;;;;;;;;;;22.90;56.90;;;;;;500124;237;1258;-70
2021/07/23 04:48:12;;;;;;;;;;;22.90;56.90;;;;;;500211;237;1131;-70
2021/07/23 04:50:13;;;;;;;;;;;22.90;56.80;;;;;;500148;237;1187;-70
2021/07/23 04:52:14;;;;;;;;;;;23.00;56.80;;;;;;500145;237;1076;-70
2021/07/23 04:54:15;;;;;;;;;;;22.90;56.80;;;;;;500115;237;1089;-70
2021/07/23 04:56:17;;;;;;;;;;;23.00;56.70;;;;;;500015;237;1330;-70
2021/07/23 04:58:18;;;;;;;;;;;23.00;56.60;;;;;;500049;237;1221;-70
2021/07/23 05:00:19;;;;;;;;;;;23.00;56.60;;;;;;500008;237;2135;-70
2021/07/23 05:02:21;;;;;;;;;;;23.00;56.70;;;;;;499895;237;1073;-70
2021/07/23 05:04:22;;;;;;;;;;;23.00;56.60;;;;;;500125;237;1163;-70
2021/07/23 05:06:23;;;;;;;;;;;22.90;56.70;;;;;;499996;237;1233;-71
2021/07/23 05:08:27;;;;;;;;;;;22.90;56.90;;;;;;500109;237;1070;-71
2021/07/23 05:10:26;;;;;;;;;;;22.90;56.90;;;;;;500027;237;1946;-71
2021/07/23 05:12:27;;;;;;;;;;;23.00;56.80;;;;;;500046;237;1180;-71
2021/07/23 05:14:31;;;;;;;;;;;23.00;56.80;;;;;;500202;237;1228;-71
2021/07/23 05:16:30;;;;;;;;;;;23.00;56.80;;;;;;499936;237;1470;-71
2021/07/23 05:18:31;;;;;;;;;;;22.90;56.80;;;;;;500079;237;1144;-71
2021/07/23 05:20:33;;;;;;;;;;;23.00;56.70;;;;;;500006;237;2184;-71
2021/07/23 05:22:34;;;;;;;;;;;23.00;56.60;;;;;;499980;237;1119;-71
2021/07/23 05:24:35;;;;;;;;;;;23.00;56.80;;;;;;500103;237;1059;-70
2021/07/23 05:26:37;;;;;;;;;;;22.90;57.00;;;;;;499932;237;1036;-71
2021/07/23 05:28:38;;;;;;;;;;;22.80;57.50;;;;;;500117;237;1079;-71
2021/07/23 05:30:41;;;;;;;;;;;22.80;57.90;;;;;;500166;237;1069;-70
2021/07/23 05:32:41;;;;;;;;;;;22.80;58.20;;;;;;500018;237;1551;-70
2021/07/23 05:34:42;;;;;;;;;;;22.70;58.50;;;;;;500122;237;1187;-70
2021/07/23 05:36:44;;;;;;;;;;;22.70;58.70;;;;;;499973;237;1026;-70
2021/07/23 05:38:45;;;;;;;;;;;22.60;58.90;;;;;;500016;237;1282;-69
2021/07/23 05:40:46;;;;;;;;;;;22.60;59.20;;;;;;499893;237;2144;-70
2021/07/23 05:42:48;;;;;;;;;;;22.70;59.10;;;;;;499862;237;1344;-71
2021/07/23 05:44:49;;;;;;;;;;;22.60;59.10;;;;;;500148;237;1046;-71
2021/07/23 05:46:51;;;;;;;;;;;22.60;59.20;;;;;;500033;237;1041;-71
2021/07/23 05:48:52;;;;;;;;;;;22.60;59.30;;;;;;499947;237;1138;-71
2021/07/23 05:50:53;;;;;;;;;;;22.60;59.20;;;;;;499922;237;1107;-71
2021/07/23 05:52:55;;;;;;;;;;;22.60;59.00;;;;;;499807;237;1057;-70
2021/07/23 05:54:56;;;;;;;;;;;22.70;59.00;;;;;;499896;237;1038;-70
2021/07/23 05:56:57;;;;;;;;;;;22.60;58.90;;;;;;499824;237;1113;-70
2021/07/23 05:58:59;;;;;;;;;;;22.60;58.90;;;;;;499836;237;1137;-70
2021/07/23 06:01:00;;;;;;;;;;;22.60;59.00;;;;;;499964;237;2141;-70
2021/07/23 06:03:02;;;;;;;;;;;22.60;58.90;;;;;;499985;237;1047;-70
2021/07/23 06:05:03;;;;;;;;;;;22.70;58.80;;;;;;499876;237;1320;-71
2021/07/23 06:07:05;;;;;;;;;;;22.60;58.80;;;;;;499804;237;1167;-71
2021/07/23 06:09:06;;;;;;;;;;;22.60;58.80;;;;;;499927;237;1077;-70
2021/07/23 06:11:07;;;;;;;;;;;22.60;58.90;;;;;;499865;237;1056;-71
2021/07/23 06:13:09;;;;;;;;;;;22.60;58.80;;;;;;499818;237;1097;-70
2021/07/23 06:15:10;;;;;;;;;;;22.60;58.60;;;;;;499811;237;1056;-70
2021/07/23 06:17:12;;;;;;;;;;;22.60;58.60;;;;;;499814;237;1031;-70
2021/07/23 06:19:13;;;;;;;;;;;22.60;58.70;;;;;;499863;237;1142;-70
2021/07/23 06:21:14;;;;;;;;;;;22.60;58.80;;;;;;499853;237;2132;-70
2021/07/23 06:23:16;;;;;;;;;;;22.60;58.70;;;;;;499892;237;1169;-70
2021/07/23 06:25:17;;;;;;;;;;;22.60;58.80;;;;;;499940;237;1041;-70
2021/07/23 06:27:19;;;;;;;;;;;22.60;58.90;;;;;;499770;237;1102;-71
2021/07/23 06:29:20;;;;;;;;;;;22.60;58.80;;;;;;499876;237;1038;-71
2021/07/23 06:31:21;;;;;;;;;;;22.70;58.60;;;;;;499837;237;1202;-71
2021/07/23 06:33:23;;;;;;;;;;;22.70;58.40;;;;;;499855;237;1099;-70
2021/07/23 06:35:24;;;;;;;;;;;22.80;58.30;;;;;;499817;237;1572;-70
2021/07/23 06:37:26;;;;;;;;;;;22.80;58.20;;;;;;499753;237;1132;-70
2021/07/23 06:39:27;;;;;;;;;;;22.80;58.20;;;;;;499660;237;1099;-70
2021/07/23 06:41:28;;;;;;;;;;;22.80;58.20;;;;;;499432;237;2183;-70
2021/07/23 06:43:29;;;;;;;;;;;22.80;58.30;;;;;;499684;237;1195;-70
2021/07/23 06:45:31;;;;;;;;;;;22.80;58.10;;;;;;499630;237;1214;-71
2021/07/23 06:47:32;;;;;;;;;;;22.80;58.20;;;;;;499538;237;1093;-70
2021/07/23 06:49:33;;;;;;;;;;;22.80;58.30;;;;;;499620;237;1129;-70
2021/07/23 06:51:35;;;;;;;;;;;22.90;58.30;;;;;;499719;237;1206;-71
2021/07/23 06:53:36;;;;;;;;;;;22.90;58.30;;;;;;499729;237;1070;-70
2021/07/23 06:55:37;;;;;;;;;;;22.90;58.40;;;;;;499856;237;1203;-70
2021/07/23 06:57:39;;;;;;;;;;;23.00;58.20;;;;;;499549;237;1177;-71
2021/07/23 06:59:40;;;;;;;;;;;23.00;58.10;;;;;;499656;237;1052;-71
2021/07/23 07:01:41;;;;;;;;;;;23.00;58.10;;;;;;499620;237;2188;-71
2021/07/23 07:03:42;;;;;;;;;;;22.90;58.20;;;;;;499619;237;1191;-71
2021/07/23 07:05:48;;;;;;;;;;;22.90;58.20;;;;;;499561;237;1220;-70
2021/07/23 07:07:46;;;;;;;;;;;23.10;58.00;;;;;;499597;238;1704;-70
2021/07/23 07:09:47;;;;;;;;;;;23.10;57.80;;;;;;499426;237;1019;-71
2021/07/23 07:11:49;;;;;;;;;;;23.00;57.80;;;;;;499417;237;1169;-70
2021/07/23 07:13:50;;;;;;;;;;;23.00;57.80;;;;;;500083;237;1078;-70
2021/07/23 07:15:52;;;;;;;;;;;23.10;57.80;;;;;;499460;237;1189;-70
2021/07/23 07:17:53;;;;;;;;;;;23.10;57.70;;;;;;499432;237;1144;-70
2021/07/23 07:19:54;;;;;;;;;;;23.10;58.00;;;;;;499624;237;1175;-70
2021/07/23 07:21:56;;;;;;;;;;;23.10;58.20;;;;;;499598;237;2164;-71
2021/07/23 07:23:59;;;;;;;;;;;23.10;58.40;;;;;;499881;237;1265;-71
2021/07/23 07:25:58;;;;;;;;;;;23.10;58.60;;;;;;499319;238;1350;-70
2021/07/23 07:28:02;;;;;;;;;;;23.10;58.50;;;;;;499422;237;1182;-71
2021/07/23 07:30:02;;;;;;;;;;;23.10;58.60;;;;;;499298;238;1223;-70
2021/07/23 07:32:03;;;;;;;;;;;23.10;58.40;;;;;;498930;237;1292;-71
2021/07/23 07:34:04;;;;;;;;;;;23.10;58.30;;;;;;498896;237;1335;-70
2021/07/23 07:36:06;;;;;;;;;;;23.10;58.20;;;;;;498895;237;1167;-70
2021/07/23 07:38:07;;;;;;;;;;;23.20;58.10;;;;;;499231;237;1054;-70
2021/07/23 07:40:09;;;;;;;;;;;23.10;58.20;;;;;;499209;237;1248;-70
2021/07/23 07:42:11;;;;;;;;;;;23.00;58.40;;;;;;499234;237;2176;-70
2021/07/23 07:44:11;;;;;;;;;;;22.90;58.70;;;;;;499139;237;1334;-70
2021/07/23 07:46:13;;;;;;;;;;;22.90;58.80;;;;;;499082;237;1113;-70
2021/07/23 07:48:14;;;;;;;;;;;22.90;59.00;;;;;;499416;237;1114;-71
2021/07/23 07:50:15;;;;;;;;;;;22.90;59.20;;;;;;499455;237;1184;-70
2021/07/23 07:52:17;;;;;;;;;;;22.80;59.30;;;;;;499465;237;1098;-70
2021/07/23 07:54:19;;;;;;;;;;;22.80;59.20;;;;;;499350;237;1136;-70
2021/07/23 07:56:20;;;;;;;;;;;22.80;59.20;;;;;;499108;237;1074;-71
2021/07/23 07:58:21;;;;;;;;;;;22.80;59.30;;;;;;499408;237;1064;-71
2021/07/23 08:00:23;;;;;;;;;;;22.80;59.20;;;;;;499226;237;2171;-71
2021/07/23 08:02:24;;;;;;;;;;;22.80;59.30;;;;;;499255;237;1195;-70
2021/07/23 08:04:25;;;;;;;;;;;22.80;59.20;;;;;;499363;237;1277;-70
2021/07/23 08:06:32;;;;;;;;;;;22.80;59.20;;;;;;499339;237;1250;-71
2021/07/23 08:08:28;;;;;;;;;;;22.80;59.20;;;;;;499012;238;1277;-70
2021/07/23 08:10:31;;;;;;;;;;;22.80;59.20;;;;;;499452;237;1089;-70
2021/07/23 08:12:31;;;;;;;;;;;22.70;59.30;;;;;;499315;238;1373;-71
2021/07/23 08:14:32;;;;;;;;;;;22.70;59.30;;;;;;499424;237;1093;-71
2021/07/23 08:16:34;;;;;;;;;;;22.80;59.30;;;;;;499184;237;1172;-70
2021/07/23 08:18:35;;;;;;;;;;;22.70;59.30;;;;;;499113;237;1234;-70
2021/07/23 08:20:37;;;;;;;;;;;22.70;59.30;;;;;;499069;237;2184;-70
2021/07/23 08:22:39;;;;;;;;;;;22.70;59.40;;;;;;499059;237;1148;-70
2021/07/23 08:24:40;;;;;;;;;;;22.80;59.30;;;;;;499202;237;1214;-71
2021/07/23 08:26:41;;;;;;;;;;;22.80;59.20;;;;;;499051;237;1176;-70
2021/07/23 08:28:44;;;;;;;;;;;22.80;59.20;;;;;;499233;237;1417;-71
2021/07/23 08:30:44;;;;;;;;;;;22.80;59.20;;;;;;499021;238;1372;-71
2021/07/23 08:32:46;;;;;;;;;;;22.80;59.10;;;;;;499084;237;1122;-70
2021/07/23 08:34:47;;;;;;;;;;;22.80;59.20;;;;;;499284;237;1162;-71
2021/07/23 08:36:48;;;;;;;;;;;22.80;59.20;;;;;;499229;237;1141;-71
2021/07/23 08:38:51;;;;;;;;;;;22.80;59.20;;;;;;499271;237;1140;-71
2021/07/23 08:40:51;;;;;;;;;;;22.80;59.20;;;;;;499195;238;2140;-71
2021/07/23 08:42:52;;;;;;;;;;;22.80;59.20;;;;;;499242;237;1196;-71
2021/07/23 08:44:54;;;;;;;;;;;22.80;59.30;;;;;;499417;237;1083;-71
2021/07/23 08:46:55;;;;;;;;;;;22.70;59.30;;;;;;499325;237;1083;-71
2021/07/23 08:48:56;;;;;;;;;;;22.70;59.30;;;;;;499290;237;1184;-71
2021/07/23 08:50:58;;;;;;;;;;;22.80;59.40;;;;;;499218;237;1098;-70
2021/07/23 08:53:00;;;;;;;;;;;22.80;59.50;;;;;;499194;237;1093;-70
2021/07/23 08:55:00;;;;;;;;;;;22.70;59.40;;;;;;499346;238;1314;-70
2021/07/23 08:57:03;;;;;;;;;;;22.80;59.40;;;;;;499230;237;1217;-71
2021/07/23 08:59:03;;;;;;;;;;;22.90;59.10;;;;;;499327;237;1233;-71
2021/07/23 09:01:06;;;;;;;;;;;22.90;59.00;;;;;;499242;237;2171;-70
2021/07/23 09:03:06;;;;;;;;;;;22.90;58.80;;;;;;499195;238;1321;-70
2021/07/23 09:05:07;;;;;;;;;;;23.00;58.70;;;;;;499322;237;1134;-70
2021/07/23 09:07:08;;;;;;;;;;;23.00;58.70;;;;;;499195;237;1312;-70
2021/07/23 09:09:09;;;;;;;;;;;23.10;58.60;;;;;;499351;237;1268;-71
2021/07/23 09:11:11;;;;;;;;;;;23.10;58.50;;;;;;499269;237;1184;-71
2021/07/23 09:13:13;;;;;;;;;;;23.10;58.40;;;;;;499281;237;1235;-71
2021/07/23 09:15:14;;;;;;;;;;;23.20;58.40;;;;;;499352;238;1573;-71
2021/07/23 09:17:15;;;;;;;;;;;23.20;58.40;;;;;;499245;237;1187;-70
2021/07/23 09:19:16;;;;;;;;;;;23.20;58.30;;;;;;499252;237;1084;-70
2021/07/23 09:21:17;;;;;;;;;;;23.20;58.30;;;;;;499280;237;2171;-70
2021/07/23 09:23:19;;;;;;;;;;;23.20;58.10;;;;;;499174;237;1404;-70
2021/07/23 09:25:20;;;;;;;;;;;23.20;58.10;;;;;;499071;237;1072;-70
2021/07/23 09:27:21;;;;;;;;;;;23.20;58.20;;;;;;499045;235;1251;-70
2021/07/23 09:29:23;;;;;;;;;;;23.30;58.10;;;;;;499831;237;1163;-71
2021/07/23 09:31:24;;;;;;;;;;;23.20;58.10;;;;;;499358;237;1173;-70
2021/07/23 09:33:25;;;;;;;;;;;23.20;58.10;;;;;;499703;237;1138;-71
2021/07/23 09:35:27;;;;;;;;;;;23.20;58.10;;;;;;499088;237;1090;-70
2021/07/23 09:37:28;;;;;;;;;;;23.30;58.10;;;;;;499109;237;1171;-72
2021/07/23 09:39:29;;;;;;;;;;;23.30;58.00;;;;;;499105;237;1067;-67
2021/07/23 09:41:31;;;;;;;;;;;23.30;57.90;;;;;;499117;237;2179;-71
2021/07/23 09:43:32;;;;;;;;;;;23.40;57.80;;;;;;499352;237;1084;-70
2021/07/23 09:45:33;;;;;;;;;;;23.40;57.60;;;;;;499494;237;1052;-70
2021/07/23 09:47:34;;;;;;;;;;;23.30;57.80;;;;;;499423;237;1097;-70
2021/07/23 09:49:36;;;;;;;;;;;23.20;58.10;;;;;;499470;237;1076;-71
2021/07/23 09:51:37;;;;;;;;;;;23.10;58.50;;;;;;499210;237;1195;-70
2021/07/23 09:53:38;;;;;;;;;;;23.10;58.70;;;;;;499377;237;1168;-70
2021/07/23 09:55:40;;;;;;;;;;;23.00;58.80;;;;;;499314;237;1066;-70
2021/07/23 09:57:42;;;;;;;;;;;23.00;58.80;;;;;;499353;237;1125;-70
2021/07/23 09:59:43;;;;;;;;;;;23.00;59.00;;;;;;499402;237;1051;-70
2021/07/23 10:01:44;;;;;;;;;;;23.00;58.80;;;;;;499284;237;2188;-70
2021/07/23 10:03:46;;;;;;;;;;;22.90;58.90;;;;;;499372;237;1181;-71
2021/07/23 10:05:47;;;;;;;;;;;23.00;59.00;;;;;;499394;237;1053;-71
2021/07/23 10:07:49;;;;;;;;;;;23.00;58.90;;;;;;499319;237;1221;-71
2021/07/23 10:09:50;;;;;;;;;;;23.00;59.00;;;;;;499203;237;1189;-71
2021/07/23 10:11:51;;;;;;;;;;;23.00;58.90;;;;;;499025;237;1120;-71
2021/07/23 10:13:53;;;;;;;;;;;23.00;58.90;;;;;;499116;237;1098;-70
2021/07/23 10:15:54;;;;;;;;;;;23.00;58.90;;;;;;499385;237;1280;-70
2021/07/23 10:17:55;;;;;;;;;;;23.00;58.90;;;;;;499463;237;1184;-70
2021/07/23 10:19:57;;;;;;;;;;;23.00;59.10;;;;;;499423;237;1194;-70
2021/07/23 10:21:58;;;;;;;;;;;23.00;58.90;;;;;;499324;237;2179;-71
2021/07/23 10:23:59;;;;;;;;;;;23.00;58.90;;;;;;499449;237;1102;-70
2021/07/23 10:26:00;;;;;;;;;;;23.00;58.80;;;;;;499360;237;1203;-71
2021/07/23 10:28:02;;;;;;;;;;;23.00;58.80;;;;;;499457;237;1110;-71
2021/07/23 10:30:03;;;;;;;;;;;23.00;58.80;;;;;;499418;237;1116;-71
2021/07/23 10:32:04;;;;;;;;;;;23.00;58.80;;;;;;499210;237;1244;-70
2021/07/23 10:34:06;;;;;;;;;;;23.00;58.90;;;;;;499340;237;1089;-71
2021/07/23 10:36:08;;;;;;;;;;;22.90;58.90;;;;;;499324;235;1150;-70
2021/07/23 10:38:09;;;;;;;;;;;22.90;58.90;;;;;;499315;237;1230;-70
2021/07/23 10:40:11;;;;;;;;;;;22.90;59.00;;;;;;499366;237;1038;-71
2021/07/23 10:42:12;;;;;;;;;;;22.90;59.00;;;;;;499144;237;2192;-71
2021/07/23 10:44:13;;;;;;;;;;;22.90;59.00;;;;;;499343;237;1040;-71
2021/07/23 10:46:14;;;;;;;;;;;22.90;58.90;;;;;;499291;237;1205;-70
2021/07/23 10:48:16;;;;;;;;;;;22.90;58.90;;;;;;499366;237;1112;-70
2021/07/23 10:50:17;;;;;;;;;;;22.90;58.90;;;;;;499407;237;1085;-70
2021/07/23 10:52:18;;;;;;;;;;;22.80;59.00;;;;;;499197;237;1122;-70
2021/07/23 10:54:19;;;;;;;;;;;22.80;58.90;;;;;;499428;237;1047;-70
2021/07/23 10:56:21;;;;;;;;;;;22.80;58.80;;;;;;499321;237;1196;-70
2021/07/23 10:58:22;;;;;;;;;;;23.00;58.60;;;;;;499459;237;1145;-71
2021/07/23 11:00:23;;;;;;;;;;;22.90;58.50;;;;;;499328;237;1164;-70
2021/07/23 11:02:25;;;;;;;;;;;22.90;58.70;;;;;;499365;237;2164;-70
2021/07/23 11:04:26;;;;;;;;;;;22.90;58.70;;;;;;499394;237;1094;-71
2021/07/23 11:06:27;;;;;;;;;;;22.90;58.70;;;;;;499104;237;1201;-70
2021/07/23 11:08:29;;;;;;;;;;;22.80;58.80;;;;;;499281;237;1142;-71
2021/07/23 11:10:30;;;;;;;;;;;22.80;58.90;;;;;;499252;237;1059;-71
2021/07/23 11:12:32;;;;;;;;;;;22.80;58.70;;;;;;499095;237;1098;-71
2021/07/23 11:14:33;;;;;;;;;;;22.80;58.80;;;;;;499308;237;1056;-70
2021/07/23 11:16:34;;;;;;;;;;;22.80;58.70;;;;;;499298;237;1331;-70
2021/07/23 11:18:35;;;;;;;;;;;22.80;58.70;;;;;;499281;237;1097;-70
2021/07/23 11:20:40;;;;;;;;;;;22.80;58.60;;;;;;499095;237;1055;-70
2021/07/23 11:22:41;;;;;;;;;;;22.80;58.60;;;;;;499165;237;2176;-70
2021/07/23 11:24:42;;;;;;;;;;;22.80;58.70;;;;;;499210;237;1241;-71
2021/07/23 11:26:44;;;;;;;;;;;22.80;58.60;;;;;;499278;237;1249;-70
2021/07/23 11:28:45;;;;;;;;;;;22.80;58.50;;;;;;499288;237;1128;-71
2021/07/23 11:30:46;;;;;;;;;;;22.80;58.50;;;;;;499274;237;1049;-71
2021/07/23 11:32:48;;;;;;;;;;;22.80;58.50;;;;;;499300;237;1119;-71
2021/07/23 11:34:49;;;;;;;;;;;22.90;58.50;;;;;;499334;237;1284;-71
2021/07/23 11:36:51;;;;;;;;;;;22.90;58.30;;;;;;499119;237;1099;-71
2021/07/23 11:38:52;;;;;;;;;;;22.90;58.20;;;;;;499199;237;1167;-70
2021/07/23 11:40:53;;;;;;;;;;;22.90;58.30;;;;;;499264;237;1062;-71
2021/07/23 11:42:55;;;;;;;;;;;22.90;58.30;;;;;;499251;237;2190;-70
2021/07/23 11:44:56;;;;;;;;;;;22.90;58.30;;;;;;499257;237;1131;-71
2021/07/23 11:46:57;;;;;;;;;;;22.90;58.30;;;;;;499277;237;1145;-71
2021/07/23 11:49:01;;;;;;;;;;;22.90;58.30;;;;;;499283;237;1073;-70
2021/07/23 11:51:00;;;;;;;;;;;22.80;58.30;;;;;;498984;237;1285;-70
2021/07/23 11:53:02;;;;;;;;;;;22.90;58.30;;;;;;499198;237;1134;-70
2021/07/23 11:55:03;;;;;;;;;;;22.90;58.10;;;;;;499334;237;1089;-70
2021/07/23 11:57:04;;;;;;;;;;;22.90;58.10;;;;;;498980;237;1225;-70